Aviation Digital Data Service (ADDS)

Output produced by METARs form (1919 UTC 18 April 2019)
found at http://www.aviationweather.gov/metar/data/
 
Forecast for: VGEG (CHITTAGONG (CV/M, BD)
Text: TAF VGEG 181700Z 1818/1924 00000KT 4000 HZ NSC
Forecast period: 1800 UTC 18 April 2019 to 0000 UTC 19 April 2019
Forecast type: FROM: standard forecast or significant change
Winds: calm
Visibility: 2.49 miles (4.01 km)
Ceiling: unknown
Clouds: missing
Weather: HZ  (haze)
Text: BECMG 1900/1902 00000KT 2000 BR SCT014
Forecast period: 0000 to 0300 UTC 19 April 2019
Forecast type: BECOMING: Conditions expected to become as follows by 0200 UTC 19 April 2019
Winds: calm
Visibility: 1.24 miles (2.00 km)
Ceiling: at least 12,000 feet AGL
Clouds: scattered clouds at 1400 feet AGL
Weather: BR  (mist)
Text: BECMG 1903/1905 27010KT 5000 HZ NSC
Forecast period: 0300 to 1400 UTC 19 April 2019
Forecast type: BECOMING: Conditions expected to become as follows by 0500 UTC 19 April 2019
Winds: from the W (270 degrees) at 12 MPH (10 knots; 5.1 m/s)
Visibility: 3 miles (5 km)
Ceiling: unknown
Clouds: missing
Weather: HZ  (haze)
Text: BECMG 1914/1916 00000KT 4500 HZ NSC
Forecast period: 1400 UTC 19 April 2019 to 0000 UTC 20 April 2019
Forecast type: BECOMING: Conditions expected to become as follows by 1600 UTC 19 April 2019
Winds: calm
Visibility: 2.80 miles (4.51 km)
Ceiling: unknown
Clouds: missing
Weather: HZ  (haze)